createdAt,value
2017-06-08T00:00:01.467Z,3.27
2017-06-08T00:02:29.542Z,3.10
2017-06-08T00:04:57.619Z,3.10
2017-06-08T00:07:25.707Z,2.37
2017-06-08T00:09:53.783Z,2.37
2017-06-08T00:12:21.878Z,3.50
2017-06-08T00:14:49.960Z,2.00
2017-06-08T00:17:18.050Z,3.30
2017-06-08T00:19:46.140Z,2.07
2017-06-08T00:22:14.223Z,2.50
2017-06-08T00:24:42.301Z,2.43
2017-06-08T00:27:10.388Z,2.10
2017-06-08T00:29:38.471Z,2.50
2017-06-08T00:32:06.559Z,2.50
2017-06-08T00:34:34.645Z,2.43
2017-06-08T00:37:02.743Z,1.90
2017-06-08T00:39:30.827Z,2.93
2017-06-08T00:41:58.905Z,2.50
2017-06-08T00:44:26.991Z,2.10
2017-06-08T00:46:55.085Z,2.40
2017-06-08T00:49:23.163Z,2.40
2017-06-08T00:51:51.276Z,2.47
2017-06-08T00:54:19.351Z,2.00
2017-06-08T00:56:47.439Z,2.40
2017-06-08T00:59:15.509Z,3.50
2017-06-08T01:01:43.584Z,2.20
2017-06-08T01:04:11.670Z,2.90
2017-06-08T01:06:39.770Z,2.50
2017-06-08T01:09:07.855Z,2.80
2017-06-08T01:11:35.939Z,2.37
2017-06-08T01:14:04.021Z,3.30
2017-06-08T01:16:32.096Z,2.57
2017-06-08T01:19:00.179Z,2.90
2017-06-08T01:21:28.252Z,3.30
2017-06-08T01:23:56.345Z,2.87
2017-06-08T01:26:24.410Z,2.80
2017-06-08T01:28:52.558Z,2.50
2017-06-08T01:31:20.600Z,2.70
2017-06-08T01:33:48.680Z,2.60
2017-06-08T01:36:16.750Z,2.73
2017-06-08T01:38:44.848Z,2.47
2017-06-08T01:41:12.937Z,2.83
2017-06-08T01:43:41.030Z,3.20
2017-06-08T01:46:09.123Z,2.90
2017-06-08T01:48:37.201Z,3.20
2017-06-08T01:51:05.291Z,4.43
2017-06-08T01:53:33.365Z,4.30
2017-06-08T01:56:01.445Z,3.30
2017-06-08T01:58:29.521Z,3.77
2017-06-08T02:00:57.612Z,3.50
2017-06-08T02:03:25.689Z,3.10
2017-06-08T02:05:53.758Z,3.80
2017-06-08T02:08:21.842Z,2.50
2017-06-08T02:10:49.923Z,2.33
2017-06-08T02:13:18.011Z,2.17
2017-06-08T02:15:46.080Z,3.00
2017-06-08T02:18:14.174Z,2.57
2017-06-08T02:20:42.251Z,2.60
2017-06-08T02:23:10.331Z,2.33
2017-06-08T02:25:38.421Z,2.83
2017-06-08T02:28:06.503Z,2.30
2017-06-08T02:30:34.597Z,2.50
2017-06-08T02:33:02.667Z,2.30
2017-06-08T02:35:30.749Z,2.90
2017-06-08T02:37:58.828Z,2.73
2017-06-08T02:40:26.924Z,2.60
2017-06-08T02:42:55.025Z,2.47
2017-06-08T02:45:23.095Z,3.07
2017-06-08T02:47:51.183Z,2.70
2017-06-08T02:50:19.260Z,2.70
2017-06-08T02:52:47.348Z,2.30
2017-06-08T02:55:15.431Z,2.40
2017-06-08T02:57:43.518Z,2.90
2017-06-08T03:00:11.583Z,2.50
2017-06-08T03:02:39.675Z,2.50
2017-06-08T03:05:07.750Z,2.60
2017-06-08T03:07:35.825Z,2.47
2017-06-08T03:10:03.911Z,2.70
2017-06-08T03:12:32.003Z,2.00
2017-06-08T03:15:00.083Z,2.77
2017-06-08T03:17:28.159Z,2.90
2017-06-08T03:19:56.257Z,2.23
2017-06-08T03:22:24.339Z,2.57
2017-06-08T03:24:52.412Z,2.30
2017-06-08T03:27:20.495Z,2.70
2017-06-08T03:29:48.579Z,2.73
2017-06-08T03:32:16.664Z,2.93
2017-06-08T03:34:44.740Z,2.63
2017-06-08T03:37:12.820Z,2.43
2017-06-08T03:39:40.892Z,2.40
2017-06-08T03:42:08.976Z,3.00
2017-06-08T03:44:37.047Z,3.10
2017-06-08T03:47:05.119Z,2.07
2017-06-08T03:49:33.200Z,2.40
2017-06-08T03:52:01.288Z,1.90
2017-06-08T03:54:29.431Z,2.63
2017-06-08T03:56:57.528Z,3.00
2017-06-08T03:59:25.611Z,2.50
2017-06-08T04:01:53.696Z,1.97
2017-06-08T04:04:21.791Z,1.70
2017-06-08T04:06:49.861Z,1.90
2017-06-08T04:09:17.939Z,2.33
2017-06-08T04:11:46.019Z,2.50
2017-06-08T04:14:14.092Z,1.87
2017-06-08T04:16:42.188Z,2.00
2017-06-08T04:19:10.259Z,2.03
2017-06-08T04:21:38.349Z,3.13
2017-06-08T04:24:06.425Z,4.57
2017-06-08T04:26:34.520Z,4.27
2017-06-08T04:29:02.596Z,3.00
2017-06-08T04:31:30.676Z,2.70
2017-06-08T04:33:58.763Z,2.37
2017-06-08T04:36:26.848Z,2.17
2017-06-08T04:38:54.928Z,2.47
2017-06-08T04:41:23.005Z,2.53
2017-06-08T04:43:51.135Z,2.20
2017-06-08T04:46:19.216Z,2.00
2017-06-08T04:48:47.311Z,1.70
2017-06-08T04:51:15.398Z,1.90
2017-06-08T04:53:43.487Z,2.10
2017-06-08T04:56:11.739Z,1.80
2017-06-08T04:58:39.819Z,2.20
2017-06-08T05:01:07.902Z,2.37
2017-06-08T05:03:35.979Z,2.43
2017-06-08T05:06:04.075Z,1.90
2017-06-08T05:08:32.165Z,2.20
2017-06-08T05:11:00.239Z,2.00
2017-06-08T05:13:28.327Z,1.77
2017-06-08T05:15:56.405Z,2.30
2017-06-08T05:18:24.487Z,2.27
2017-06-08T05:20:52.571Z,1.90
2017-06-08T05:23:20.652Z,2.40
2017-06-08T05:25:48.728Z,2.00
2017-06-08T05:28:16.832Z,2.47
2017-06-08T05:30:44.912Z,1.70
2017-06-08T05:33:13.003Z,1.83
2017-06-08T05:35:41.095Z,2.30
2017-06-08T05:38:09.171Z,1.80
2017-06-08T05:40:43.015Z,1.77
2017-06-08T05:43:11.101Z,2.20
2017-06-08T05:45:39.211Z,1.60
2017-06-08T05:48:07.292Z,2.20
2017-06-08T05:50:35.379Z,2.10
2017-06-08T05:53:03.539Z,1.50
2017-06-08T05:55:31.613Z,1.97
2017-06-08T05:57:59.695Z,1.60
2017-06-08T06:00:27.769Z,1.60
2017-06-08T06:02:55.854Z,1.60
2017-06-08T06:05:23.927Z,1.60
2017-06-08T06:07:52.025Z,1.60
2017-06-08T06:10:20.131Z,1.97
2017-06-08T06:12:48.208Z,1.90
2017-06-08T06:15:16.301Z,1.70
2017-06-08T06:17:44.387Z,1.87
2017-06-08T06:20:12.467Z,1.73
2017-06-08T06:22:40.535Z,1.80
2017-06-08T06:25:08.615Z,1.90
2017-06-08T06:27:36.688Z,1.80
2017-06-08T06:30:04.787Z,1.83
2017-06-08T06:32:32.865Z,1.50
2017-06-08T06:35:00.943Z,1.80
2017-06-08T06:37:29.035Z,1.60
2017-06-08T06:39:57.107Z,1.50
2017-06-08T06:42:25.197Z,1.90
2017-06-08T06:44:53.298Z,1.97
2017-06-08T06:47:21.375Z,1.50
2017-06-08T06:49:49.448Z,1.50
2017-06-08T06:52:17.812Z,1.80
2017-06-08T06:54:45.961Z,1.40
2017-06-08T06:57:14.035Z,1.70
2017-06-08T06:59:42.130Z,1.50
2017-06-08T07:02:10.205Z,1.40
2017-06-08T07:04:38.283Z,1.97
2017-06-08T07:07:06.372Z,1.30
2017-06-08T07:09:34.464Z,1.63
2017-06-08T07:12:02.544Z,1.40
2017-06-08T07:14:30.737Z,1.60
2017-06-08T07:16:58.802Z,1.50
2017-06-08T07:19:26.894Z,1.90
2017-06-08T07:21:54.975Z,1.60
2017-06-08T07:24:23.061Z,1.63
2017-06-08T07:26:51.139Z,1.30
2017-06-08T07:29:19.383Z,1.43
2017-06-08T07:31:47.526Z,1.57
2017-06-08T07:34:15.619Z,1.60
2017-06-08T07:36:43.711Z,1.30
2017-06-08T07:39:11.870Z,1.30
2017-06-08T07:41:40.059Z,1.53
2017-06-08T07:44:08.135Z,1.20
2017-06-08T07:46:36.205Z,1.20
2017-06-08T07:49:04.291Z,1.50
2017-06-08T07:51:32.371Z,1.23
2017-06-08T07:54:00.447Z,1.40
2017-06-08T07:56:28.523Z,1.40
2017-06-08T07:58:56.599Z,1.70
2017-06-08T08:01:36.338Z,1.43
2017-06-08T08:04:04.435Z,1.50
2017-06-08T08:06:32.519Z,1.20
2017-06-08T08:09:00.605Z,1.60
2017-06-08T08:11:28.686Z,1.60
2017-06-08T08:13:56.768Z,1.20
2017-06-08T08:16:24.856Z,1.60
2017-06-08T08:18:52.936Z,1.63
2017-06-08T08:21:21.032Z,1.50
2017-06-08T08:23:49.102Z,1.10
2017-06-08T08:26:17.188Z,1.33
2017-06-08T08:28:45.283Z,1.70
2017-06-08T08:31:13.362Z,1.30
2017-06-08T08:33:41.546Z,1.40
2017-06-08T08:36:09.627Z,1.63
2017-06-08T08:38:37.716Z,1.37
2017-06-08T08:41:05.783Z,1.60
2017-06-08T08:43:33.879Z,1.47
2017-06-08T08:46:01.953Z,1.23
2017-06-08T08:48:30.024Z,1.30
2017-06-08T08:50:58.103Z,1.70
2017-06-08T08:53:26.399Z,1.70
2017-06-08T08:55:54.500Z,1.30
2017-06-08T08:58:22.591Z,1.40
2017-06-08T09:00:50.679Z,1.43
2017-06-08T09:03:18.796Z,1.53
2017-06-08T09:05:46.889Z,1.60
2017-06-08T09:08:14.967Z,1.50
2017-06-08T09:10:43.053Z,1.37
2017-06-08T09:13:11.134Z,1.73
2017-06-08T09:15:39.275Z,1.30
2017-06-08T09:18:07.540Z,1.50
2017-06-08T09:20:35.820Z,1.30
2017-06-08T09:23:04.100Z,1.43
2017-06-08T09:25:32.185Z,1.20
2017-06-08T09:28:00.267Z,1.20
2017-06-08T09:30:28.360Z,1.57
2017-06-08T09:32:56.443Z,1.30
2017-06-08T09:35:24.532Z,1.40
2017-06-08T09:37:52.611Z,1.30
2017-06-08T09:40:20.695Z,1.50
2017-06-08T09:42:48.776Z,1.50
2017-06-08T09:45:16.855Z,1.30
2017-06-08T09:47:44.941Z,1.60
2017-06-08T09:50:13.035Z,1.50
2017-06-08T09:52:41.188Z,1.50
2017-06-08T09:55:09.267Z,1.30
2017-06-08T09:57:37.359Z,1.40
2017-06-08T10:00:06.243Z,1.30
2017-06-08T10:02:34.329Z,1.50
2017-06-08T10:05:03.303Z,1.67
2017-06-08T10:07:31.395Z,1.30
2017-06-08T10:09:59.471Z,1.30
2017-06-08T10:12:27.547Z,1.20
2017-06-08T10:14:55.641Z,1.63
2017-06-08T10:17:23.711Z,1.63
2017-06-08T10:19:51.792Z,1.30
2017-06-08T10:22:19.873Z,1.50
2017-06-08T10:24:47.959Z,1.40
2017-06-08T10:27:16.034Z,1.30
2017-06-08T10:29:44.119Z,1.20
2017-06-08T10:32:12.204Z,1.33
2017-06-08T10:34:40.316Z,1.20
2017-06-08T10:37:08.365Z,1.50
2017-06-08T10:39:36.456Z,1.40
2017-06-08T10:42:04.543Z,1.33
2017-06-08T10:44:32.623Z,1.30
2017-06-08T10:47:00.709Z,1.50
2017-06-08T10:49:28.800Z,1.47
2017-06-08T10:51:56.875Z,1.30
2017-06-08T10:54:25.050Z,1.60
2017-06-08T10:56:53.136Z,1.40
2017-06-08T10:59:21.400Z,1.23
2017-06-08T11:01:49.681Z,1.70
2017-06-08T11:04:17.956Z,1.30
2017-06-08T11:06:46.232Z,1.40
2017-06-08T11:09:14.503Z,1.23
2017-06-08T11:11:42.593Z,1.50
2017-06-08T11:14:10.664Z,1.30
2017-06-08T11:16:38.743Z,1.40
2017-06-08T11:19:06.815Z,1.40
2017-06-08T11:21:34.900Z,1.53
2017-06-08T11:24:02.970Z,1.27
2017-06-08T11:26:31.062Z,1.50
2017-06-08T11:28:59.139Z,1.97
2017-06-08T11:31:27.239Z,1.57
2017-06-08T11:33:55.317Z,1.47
2017-06-08T11:36:23.388Z,1.60
2017-06-08T11:38:51.474Z,1.70
2017-06-08T11:41:19.550Z,1.60
2017-06-08T11:43:47.639Z,1.50
2017-06-08T11:46:15.716Z,1.97
2017-06-08T11:48:43.792Z,1.50
2017-06-08T11:51:11.867Z,1.80
2017-06-08T11:53:39.946Z,1.23
2017-06-08T11:56:08.033Z,1.50
2017-06-08T11:58:36.123Z,1.60
2017-06-08T12:01:04.203Z,1.50
2017-06-08T12:03:32.266Z,1.60
2017-06-08T12:06:00.355Z,1.90
2017-06-08T12:08:28.454Z,1.90
2017-06-08T12:10:56.560Z,1.70
2017-06-08T12:13:24.631Z,1.77
2017-06-08T12:15:52.717Z,1.90
2017-06-08T12:18:20.793Z,1.80
2017-06-08T12:20:48.879Z,1.63
2017-06-08T12:23:16.949Z,1.60
2017-06-08T12:25:45.034Z,1.40
2017-06-08T12:28:16.895Z,1.63
2017-06-08T12:30:44.990Z,1.70
2017-06-08T12:33:13.062Z,1.60
2017-06-08T12:35:41.132Z,1.60
2017-06-08T12:38:09.216Z,2.23
2017-06-08T12:40:37.282Z,2.00
2017-06-08T12:43:05.376Z,1.27
2017-06-08T12:45:33.453Z,1.70
2017-06-08T12:48:01.536Z,1.30
2017-06-08T12:50:29.608Z,1.50
2017-06-08T12:52:57.684Z,1.80
2017-06-08T12:55:25.763Z,1.63
2017-06-08T12:57:53.852Z,1.43
2017-06-08T13:00:21.928Z,1.50
2017-06-08T13:02:50.013Z,1.30
2017-06-08T13:05:18.102Z,1.80
2017-06-08T13:07:46.181Z,1.83
2017-06-08T13:10:14.263Z,1.70
2017-06-08T13:12:42.339Z,1.40
2017-06-08T13:15:10.419Z,1.60
2017-06-08T13:17:38.511Z,1.30
2017-06-08T13:20:06.604Z,1.73
2017-06-08T13:22:34.692Z,1.50
2017-06-08T13:25:02.783Z,1.63
2017-06-08T13:27:30.856Z,1.60
2017-06-08T13:29:58.939Z,1.57
2017-06-08T13:32:27.023Z,1.67
2017-06-08T13:34:55.109Z,1.70
2017-06-08T13:37:23.275Z,1.90
2017-06-08T13:39:51.345Z,1.50
2017-06-08T13:42:19.415Z,1.50
2017-06-08T13:44:47.496Z,1.53
2017-06-08T13:47:15.582Z,1.50
2017-06-08T13:49:43.657Z,2.13
2017-06-08T13:52:11.733Z,1.40
2017-06-08T13:54:39.815Z,1.40
2017-06-08T13:57:07.888Z,1.40
2017-06-08T13:59:35.981Z,1.40
2017-06-08T14:02:04.065Z,1.70
2017-06-08T14:04:32.151Z,1.40
2017-06-08T14:07:00.226Z,1.30
2017-06-08T14:09:28.311Z,1.87
2017-06-08T14:11:56.392Z,1.50
2017-06-08T14:14:24.480Z,1.60
2017-06-08T14:16:52.554Z,1.47
2017-06-08T14:19:20.624Z,1.60
2017-06-08T14:21:48.709Z,1.60
2017-06-08T14:24:16.784Z,1.83
2017-06-08T14:26:44.866Z,1.37
2017-06-08T14:29:12.932Z,1.60
2017-06-08T14:31:41.016Z,1.43
2017-06-08T14:34:09.099Z,1.40
2017-06-08T14:36:37.197Z,1.20
2017-06-08T14:39:05.276Z,1.40
2017-06-08T14:41:33.370Z,1.60
2017-06-08T14:44:01.435Z,2.50
2017-06-08T14:46:29.506Z,1.70
2017-06-08T14:48:57.595Z,1.70
2017-06-08T14:51:25.726Z,1.90
2017-06-08T14:53:53.987Z,1.50
2017-06-08T14:56:22.131Z,1.67
2017-06-08T14:58:50.337Z,1.90
2017-06-08T15:01:18.415Z,1.90
2017-06-08T15:03:46.503Z,1.80
2017-06-08T15:06:14.588Z,1.70
2017-06-08T15:08:42.819Z,1.57
2017-06-08T15:11:10.891Z,1.60
2017-06-08T15:13:38.970Z,1.50
2017-06-08T15:16:07.052Z,1.53
2017-06-08T15:18:35.123Z,1.30
2017-06-08T15:21:03.212Z,1.60
2017-06-08T15:23:31.287Z,1.50
2017-06-08T15:25:59.380Z,1.50
2017-06-08T15:28:27.798Z,1.50
2017-06-08T15:30:55.894Z,1.37
2017-06-08T15:33:23.967Z,1.63
2017-06-08T15:35:52.044Z,1.50
2017-06-08T15:38:20.135Z,2.00
2017-06-08T15:40:48.217Z,1.80
2017-06-08T15:43:16.294Z,6.30
2017-06-08T15:45:44.382Z,1.63
2017-06-08T15:48:12.475Z,1.60
2017-06-08T15:50:40.556Z,1.70
2017-06-08T15:53:08.639Z,1.63
2017-06-08T15:55:36.720Z,1.30
2017-06-08T15:58:04.815Z,1.50
2017-06-08T16:00:32.896Z,1.70
2017-06-08T16:03:00.996Z,1.70
2017-06-08T16:05:29.066Z,1.50
2017-06-08T16:07:57.143Z,1.50
2017-06-08T16:10:25.235Z,2.00
2017-06-08T16:12:53.321Z,1.90
2017-06-08T16:15:21.415Z,2.13
2017-06-08T16:17:49.505Z,2.70
2017-06-08T16:20:17.587Z,2.17
2017-06-08T16:22:45.667Z,2.30
2017-06-08T16:25:13.781Z,1.47
2017-06-08T16:27:41.946Z,1.30
2017-06-08T16:30:10.019Z,1.50
2017-06-08T16:32:38.099Z,1.63
2017-06-08T16:35:06.175Z,1.60
2017-06-08T16:37:34.259Z,1.90
2017-06-08T16:40:02.330Z,2.03
2017-06-08T16:42:30.411Z,2.03
2017-06-08T16:44:58.501Z,1.60
2017-06-08T16:47:26.607Z,1.87
2017-06-08T16:49:54.684Z,1.60
2017-06-08T16:55:19.948Z,1.70
2017-06-08T16:57:48.025Z,2.27
2017-06-08T17:00:16.111Z,2.00
2017-06-08T17:02:44.213Z,1.90
2017-06-08T17:05:12.291Z,1.60
2017-06-08T17:07:40.363Z,2.10
2017-06-08T17:10:08.439Z,1.87
2017-06-08T17:12:36.518Z,2.00
2017-06-08T17:15:04.595Z,1.80
2017-06-08T17:17:32.692Z,2.30
2017-06-08T17:20:00.763Z,1.80
2017-06-08T17:22:28.847Z,1.70
2017-06-08T17:24:56.929Z,2.27
2017-06-08T17:27:25.029Z,1.60
2017-06-08T17:29:53.105Z,1.80
2017-06-08T17:32:21.192Z,1.73
2017-06-08T17:34:49.277Z,2.00
2017-06-08T17:37:17.368Z,2.60
2017-06-08T17:39:45.454Z,2.50
2017-06-08T17:42:13.534Z,1.83
2017-06-08T17:44:41.619Z,1.47
2017-06-08T17:47:09.695Z,2.17
2017-06-08T17:49:37.784Z,1.83
2017-06-08T17:52:05.861Z,1.60
2017-06-08T17:54:33.946Z,1.63
2017-06-08T17:57:02.037Z,1.77
2017-06-08T17:59:30.107Z,1.77
2017-06-08T18:01:58.193Z,2.13
2017-06-08T18:04:26.272Z,2.07
2017-06-08T18:06:54.359Z,2.13
2017-06-08T18:09:22.431Z,1.87
2017-06-08T18:11:50.511Z,2.10
2017-06-08T18:14:18.579Z,1.83
2017-06-08T18:16:46.661Z,2.30
2017-06-08T18:19:14.767Z,1.63
2017-06-08T18:21:42.835Z,2.27
2017-06-08T18:24:10.923Z,1.90
2017-06-08T18:26:39.008Z,2.30
2017-06-08T18:29:07.091Z,1.80
2017-06-08T18:31:35.167Z,2.13
2017-06-08T18:34:03.256Z,1.80
2017-06-08T18:36:31.329Z,1.80
2017-06-08T18:38:59.411Z,1.97
2017-06-08T18:41:27.483Z,2.87
2017-06-08T18:43:55.554Z,2.00
2017-06-08T18:46:23.650Z,2.20
2017-06-08T18:48:52.155Z,2.30
2017-06-08T18:51:20.236Z,1.93
2017-06-08T18:53:48.315Z,2.13
2017-06-08T18:56:16.395Z,2.23
2017-06-08T18:58:44.471Z,2.20
2017-06-08T19:01:12.560Z,2.37
2017-06-08T19:03:40.632Z,2.40
2017-06-08T19:06:08.734Z,2.87
2017-06-08T19:08:36.808Z,2.30
2017-06-08T19:11:04.889Z,2.27
2017-06-08T19:13:33.010Z,1.73
2017-06-08T19:16:01.086Z,1.87
2017-06-08T19:18:29.175Z,1.90
2017-06-08T19:20:57.272Z,2.27
2017-06-08T19:23:25.357Z,2.00
2017-06-08T19:25:53.442Z,2.47
2017-06-08T19:28:21.544Z,2.33
2017-06-08T19:30:49.624Z,2.50
2017-06-08T19:33:17.699Z,2.63
2017-06-08T19:35:45.785Z,2.60
2017-06-08T19:38:13.865Z,2.17
2017-06-08T19:40:41.967Z,2.17
2017-06-08T19:43:10.047Z,1.97
2017-06-08T19:45:38.142Z,2.13
2017-06-08T19:48:06.216Z,2.23
2017-06-08T19:50:34.314Z,2.13
2017-06-08T19:53:02.435Z,1.80
2017-06-08T19:55:30.512Z,2.30
2017-06-08T19:57:58.590Z,3.37
2017-06-08T20:00:26.667Z,3.03
2017-06-08T20:02:54.761Z,2.60
2017-06-08T20:05:22.851Z,2.17
2017-06-08T20:07:50.939Z,2.30
2017-06-08T20:10:19.006Z,2.10
2017-06-08T20:12:47.104Z,2.47
2017-06-08T20:15:15.188Z,2.70
2017-06-08T20:17:43.264Z,3.07
2017-06-08T20:20:11.347Z,2.40
2017-06-08T20:22:39.435Z,2.40
2017-06-08T20:25:07.576Z,2.30
2017-06-08T20:27:35.656Z,2.50
2017-06-08T20:30:03.739Z,2.10
2017-06-08T20:32:31.817Z,3.00
2017-06-08T20:34:59.912Z,2.57
2017-06-08T20:37:27.999Z,2.73
2017-06-08T20:39:56.079Z,2.23
2017-06-08T20:42:24.155Z,2.07
2017-06-08T20:44:53.067Z,2.13
2017-06-08T20:47:21.155Z,2.60
2017-06-08T20:49:49.231Z,2.73
2017-06-08T20:52:17.323Z,2.40
2017-06-08T20:54:45.399Z,2.47
2017-06-08T20:57:13.503Z,3.20
2017-06-08T20:59:41.578Z,2.80
2017-06-08T21:02:09.671Z,2.50
2017-06-08T21:04:37.760Z,2.57
2017-06-08T21:07:05.831Z,3.03
2017-06-08T21:09:33.911Z,2.27
2017-06-08T21:12:01.984Z,3.10
2017-06-08T21:14:30.076Z,2.30
2017-06-08T21:16:58.191Z,2.23
2017-06-08T21:19:26.251Z,2.53
2017-06-08T21:21:54.334Z,2.47
2017-06-08T21:24:22.399Z,2.33
2017-06-08T21:26:50.491Z,2.30
2017-06-08T21:29:18.562Z,2.80
2017-06-08T21:31:46.655Z,2.90
2017-06-08T21:34:14.726Z,3.00
2017-06-08T21:36:42.803Z,3.00
2017-06-08T21:39:10.875Z,2.37
2017-06-08T21:41:38.955Z,2.20
2017-06-08T21:44:07.056Z,2.77
2017-06-08T21:46:35.124Z,2.70
2017-06-08T21:49:03.211Z,2.77
2017-06-08T21:51:31.285Z,3.07
2017-06-08T21:53:59.375Z,2.60
2017-06-08T21:56:27.456Z,2.97
2017-06-08T21:58:55.543Z,2.83
2017-06-08T22:01:23.623Z,2.87
2017-06-08T22:03:51.704Z,2.90
2017-06-08T22:06:19.782Z,2.93
2017-06-08T22:08:47.865Z,3.00
2017-06-08T22:11:15.975Z,2.30
2017-06-08T22:13:44.152Z,2.73
2017-06-08T22:16:12.224Z,2.63
2017-06-08T22:18:40.295Z,2.70
2017-06-08T22:21:08.396Z,3.37
2017-06-08T22:23:36.557Z,2.90
2017-06-08T22:26:04.660Z,2.67
2017-06-08T22:28:32.748Z,2.50
2017-06-08T22:31:00.824Z,2.60
2017-06-08T22:33:28.909Z,2.90
2017-06-08T22:35:56.995Z,3.30
2017-06-08T22:38:25.084Z,2.77
2017-06-08T22:40:53.161Z,2.40
2017-06-08T22:43:21.258Z,2.67
2017-06-08T22:45:49.340Z,2.70
2017-06-08T22:48:17.421Z,3.30
2017-06-08T22:50:45.507Z,2.43
2017-06-08T22:53:13.627Z,2.63
2017-06-08T22:55:41.724Z,3.03
2017-06-08T22:58:09.807Z,2.50
2017-06-08T23:00:37.880Z,3.30
2017-06-08T23:03:05.970Z,2.80
2017-06-08T23:05:34.041Z,2.40
2017-06-08T23:08:02.124Z,2.53
2017-06-08T23:10:30.195Z,2.23
2017-06-08T23:12:58.279Z,3.00
2017-06-08T23:15:26.363Z,2.60
2017-06-08T23:17:54.435Z,2.70
2017-06-08T23:20:22.514Z,2.50
2017-06-08T23:22:50.627Z,2.20
2017-06-08T23:25:18.703Z,2.60
2017-06-08T23:27:46.770Z,2.80
2017-06-08T23:30:14.862Z,2.60
2017-06-08T23:32:42.941Z,2.53
2017-06-08T23:35:11.023Z,2.67
2017-06-08T23:37:39.108Z,2.33
2017-06-08T23:40:07.175Z,2.73
2017-06-08T23:42:35.260Z,2.57
2017-06-08T23:45:03.352Z,3.40
2017-06-08T23:47:31.425Z,3.20
2017-06-08T23:49:59.495Z,3.30
2017-06-08T23:52:27.592Z,2.83
2017-06-08T23:54:55.677Z,2.67
2017-06-08T23:57:23.757Z,2.40
2017-06-08T23:59:51.863Z,3.00
